createdAt,value
2023-03-28T00:01:13.528Z,1.00
2023-03-28T00:04:15.778Z,1.10
2023-03-28T00:07:18.615Z,0.80
2023-03-28T00:10:21.041Z,0.50
2023-03-28T00:13:23.519Z,0.70
2023-03-28T00:16:33.200Z,0.80
2023-03-28T00:19:40.773Z,1.17
2023-03-28T00:22:42.804Z,1.30
2023-03-28T00:25:45.083Z,1.17
2023-03-28T00:28:47.654Z,1.23
2023-03-28T00:31:50.961Z,1.83
2023-03-28T00:34:53.038Z,1.70
2023-03-28T00:37:57.995Z,1.30
2023-03-28T00:41:00.199Z,1.10
2023-03-28T00:44:03.013Z,0.90
2023-03-28T00:47:06.482Z,0.70
2023-03-28T00:50:27.350Z,0.77
2023-03-28T00:53:31.635Z,0.70
2023-03-28T00:56:37.782Z,0.60
2023-03-28T00:59:40.091Z,0.50
2023-03-28T01:02:51.248Z,0.60
2023-03-28T01:05:54.434Z,0.60
2023-03-28T01:08:57.008Z,0.53
2023-03-28T01:11:59.817Z,1.00
2023-03-28T01:15:04.196Z,0.60
2023-03-28T01:18:11.280Z,0.60
2023-03-28T01:21:42.204Z,0.70
2023-03-28T01:24:44.215Z,0.63
2023-03-28T01:28:03.449Z,0.73
2023-03-28T01:31:17.590Z,1.07
2023-03-28T01:35:02.698Z,1.30
2023-03-28T01:38:31.134Z,0.80
2023-03-28T01:41:56.222Z,0.67
2023-03-28T01:45:36.460Z,0.73
2023-03-28T01:48:55.473Z,0.70
2023-03-28T01:52:05.108Z,0.80
2023-03-28T01:55:27.143Z,0.80
2023-03-28T01:58:52.586Z,1.00
2023-03-28T02:02:07.674Z,1.20
2023-03-28T02:05:15.707Z,1.10
2023-03-28T02:08:20.794Z,1.17
2023-03-28T02:11:25.600Z,1.30
2023-03-28T02:14:35.962Z,1.20
2023-03-28T02:17:42.353Z,0.93
2023-03-28T02:20:45.603Z,1.23
2023-03-28T02:23:52.439Z,1.30
2023-03-28T02:26:56.292Z,1.20
2023-03-28T02:29:58.542Z,1.50
2023-03-28T02:33:02.817Z,1.57
2023-03-28T02:36:28.899Z,1.40
2023-03-28T02:39:46.784Z,1.60
2023-03-28T02:43:01.274Z,1.57
2023-03-28T02:46:20.136Z,1.80
2023-03-28T02:49:57.490Z,1.90
2023-03-28T02:53:28.518Z,2.13
2023-03-28T02:57:03.924Z,2.00
2023-03-28T03:00:18.627Z,2.43
2023-03-28T03:03:21.920Z,2.03
2023-03-28T03:06:25.444Z,2.30
2023-03-28T03:09:27.907Z,2.43
2023-03-28T03:12:30.288Z,1.90
2023-03-28T03:15:32.494Z,1.70
2023-03-28T03:18:35.073Z,1.67
2023-03-28T03:21:37.422Z,1.50
2023-03-28T03:24:39.682Z,1.60
2023-03-28T03:27:41.740Z,1.57
2023-03-28T03:30:44.051Z,1.37
2023-03-28T03:33:46.037Z,1.20
2023-03-28T03:36:50.014Z,1.60
2023-03-28T03:39:52.210Z,2.13
2023-03-28T03:42:54.515Z,1.70
2023-03-28T03:45:59.304Z,1.23
2023-03-28T03:49:02.030Z,1.37
2023-03-28T03:52:04.631Z,1.13
2023-03-28T03:55:07.624Z,1.33
2023-03-28T03:58:09.843Z,1.40
2023-03-28T04:01:14.294Z,1.40
2023-03-28T04:04:16.376Z,1.60
2023-03-28T04:07:19.146Z,1.30
2023-03-28T04:10:21.178Z,1.60
2023-03-28T04:13:23.453Z,1.30
2023-03-28T04:16:26.072Z,1.17
2023-03-28T04:19:28.410Z,1.40
2023-03-28T04:22:30.760Z,1.50
2023-03-28T04:25:33.239Z,2.23
2023-03-28T04:28:35.580Z,1.20
2023-03-28T04:31:39.859Z,1.40
2023-03-28T04:34:46.007Z,1.63
2023-03-28T04:37:49.291Z,1.50
2023-03-28T04:40:53.674Z,1.60
2023-03-28T04:43:56.102Z,1.37
2023-03-28T04:46:58.750Z,1.47
2023-03-28T04:50:01.108Z,1.60
2023-03-28T04:53:03.355Z,1.53
2023-03-28T04:56:07.370Z,1.60
2023-03-28T04:59:11.231Z,1.70
2023-03-28T05:02:13.595Z,1.77
2023-03-28T05:05:15.896Z,1.80
2023-03-28T05:08:22.634Z,1.57
2023-03-28T05:11:24.683Z,1.80
2023-03-28T05:14:27.064Z,1.47
2023-03-28T05:17:29.110Z,1.63
2023-03-28T05:20:32.490Z,1.70
2023-03-28T05:23:34.568Z,1.60
2023-03-28T05:26:36.893Z,1.80
2023-03-28T05:29:39.607Z,1.63
2023-03-28T05:32:42.152Z,1.40
2023-03-28T05:35:44.594Z,1.70
2023-03-28T05:38:47.002Z,1.67
2023-03-28T05:41:49.114Z,1.73
2023-03-28T05:44:51.427Z,1.70
2023-03-28T05:47:55.719Z,1.60
2023-03-28T05:50:58.395Z,1.80
2023-03-28T05:54:00.935Z,1.73
2023-03-28T05:57:04.011Z,1.73
2023-03-28T06:00:12.229Z,2.03
2023-03-28T06:03:16.616Z,1.50
2023-03-28T06:06:20.430Z,1.43
2023-03-28T06:09:22.739Z,1.80
2023-03-28T06:12:24.753Z,2.20
2023-03-28T06:15:27.398Z,2.30
2023-03-28T06:18:33.243Z,1.97
2023-03-28T06:21:35.813Z,1.83
2023-03-28T06:24:37.808Z,2.00
2023-03-28T06:27:40.319Z,1.93
2023-03-28T06:30:42.485Z,2.17
2023-03-28T06:33:44.838Z,2.53
2023-03-28T06:36:46.874Z,3.00
2023-03-28T06:39:50.823Z,2.67
2023-03-28T06:42:53.369Z,2.80
2023-03-28T06:45:55.737Z,2.80
2023-03-28T06:48:57.902Z,2.77
2023-03-28T06:52:00.345Z,3.10
2023-03-28T06:55:02.438Z,2.70
2023-03-28T06:58:05.440Z,2.67
2023-03-28T07:01:07.640Z,2.57
2023-03-28T07:04:10.619Z,2.40
2023-03-28T07:07:12.654Z,2.23
2023-03-28T07:10:15.359Z,2.43
2023-03-28T07:13:17.406Z,2.00
2023-03-28T07:16:21.043Z,3.50
2023-03-28T07:19:23.730Z,2.70
2023-03-28T07:22:27.265Z,2.60
2023-03-28T07:25:29.336Z,1.90
2023-03-28T07:28:31.599Z,3.90
2023-03-28T07:31:33.897Z,2.00
2023-03-28T07:34:36.582Z,2.13
2023-03-28T07:37:38.753Z,2.20
2023-03-28T07:40:41.211Z,2.10
2023-03-28T07:43:43.309Z,2.27
2023-03-28T07:46:46.548Z,2.70
2023-03-28T07:49:48.665Z,2.33
2023-03-28T07:52:52.435Z,2.47
2023-03-28T07:55:56.010Z,2.30
2023-03-28T07:58:58.770Z,2.60
2023-03-28T08:02:01.139Z,2.00
2023-03-28T08:05:03.588Z,1.83
2023-03-28T08:08:06.824Z,2.00
2023-03-28T08:11:12.375Z,1.90
2023-03-28T08:14:16.815Z,2.17
2023-03-28T08:17:19.207Z,1.77
2023-03-28T08:20:21.480Z,2.20
2023-03-28T08:23:23.972Z,1.80
2023-03-28T08:26:28.161Z,1.93
2023-03-28T08:29:31.965Z,1.73
2023-03-28T08:32:34.112Z,1.77
2023-03-28T08:35:40.340Z,1.57
2023-03-28T08:38:46.695Z,1.50
2023-03-28T08:42:09.314Z,1.33
2023-03-28T08:45:36.697Z,0.80
2023-03-28T08:48:43.435Z,1.90
2023-03-28T08:51:50.425Z,1.80
2023-03-28T08:55:17.768Z,1.00
2023-03-28T08:58:23.257Z,1.20
2023-03-28T09:01:29.533Z,1.30
2023-03-28T09:04:35.551Z,1.30
2023-03-28T09:07:54.737Z,2.40
2023-03-28T09:11:11.003Z,2.27
2023-03-28T09:14:34.843Z,1.30
2023-03-28T09:18:03.052Z,1.97
2023-03-28T09:21:13.841Z,1.60
2023-03-28T09:24:23.756Z,1.23
2023-03-28T09:27:32.691Z,4.03
2023-03-28T09:30:44.861Z,2.10
2023-03-28T09:33:50.825Z,1.20
2023-03-28T09:36:56.640Z,1.40
2023-03-28T09:40:20.482Z,1.17
2023-03-28T09:43:38.561Z,1.03
2023-03-28T09:46:47.029Z,1.17
2023-03-28T09:49:54.349Z,1.00
2023-03-28T09:53:01.773Z,1.37
2023-03-28T09:56:13.287Z,2.43
2023-03-28T09:59:28.870Z,1.47
2023-03-28T10:02:33.977Z,1.20
2023-03-28T10:05:44.808Z,1.20
2023-03-28T10:08:47.378Z,1.10
2023-03-28T10:11:56.698Z,1.20
2023-03-28T10:14:59.158Z,1.20
2023-03-28T10:18:04.003Z,1.70
2023-03-28T10:21:15.569Z,1.40
2023-03-28T10:24:21.956Z,1.27
2023-03-28T10:27:32.695Z,1.67
2023-03-28T10:30:36.927Z,1.80
2023-03-28T10:33:43.285Z,1.30
2023-03-28T10:36:46.071Z,1.30
2023-03-28T10:40:05.188Z,1.20
2023-03-28T10:43:15.759Z,0.77
2023-03-28T10:46:26.929Z,0.90
2023-03-28T10:49:38.531Z,1.20
2023-03-28T10:53:33.030Z,1.40
2023-03-28T10:56:41.389Z,1.37
2023-03-28T11:00:06.779Z,1.50
2023-03-28T11:03:37.697Z,1.70
2023-03-28T11:06:49.724Z,1.50
2023-03-28T11:10:12.137Z,1.10
2023-03-28T11:13:42.385Z,1.40
2023-03-28T11:17:16.429Z,2.10
2023-03-28T11:20:48.051Z,1.47
2023-03-28T11:24:11.146Z,1.67
2023-03-28T11:27:29.106Z,1.63
2023-03-28T11:30:36.362Z,1.80
2023-03-28T11:33:55.227Z,2.27
2023-03-28T11:37:12.099Z,1.67
2023-03-28T11:40:25.373Z,0.93
2023-03-28T11:43:33.393Z,1.37
2023-03-28T11:46:46.955Z,1.60
2023-03-28T11:49:59.495Z,1.30
2023-03-28T11:53:08.495Z,1.50
2023-03-28T11:56:42.256Z,1.70
2023-03-28T12:00:06.873Z,1.20
2023-03-28T12:03:14.017Z,1.30
2023-03-28T12:06:28.754Z,2.00
2023-03-28T12:09:45.254Z,1.53
2023-03-28T12:12:57.107Z,3.30
2023-03-28T12:16:04.498Z,1.30
2023-03-28T12:19:12.214Z,1.37
2023-03-28T12:22:14.443Z,1.60
2023-03-28T12:25:31.567Z,1.20
2023-03-28T12:28:40.493Z,1.33
2023-03-28T12:32:13.726Z,0.97
2023-03-28T12:35:29.805Z,1.33
2023-03-28T12:39:09.966Z,1.10
2023-03-28T12:42:14.777Z,1.20
2023-03-28T12:45:37.459Z,1.10
2023-03-28T12:48:45.476Z,1.10
2023-03-28T12:51:52.262Z,1.00
2023-03-28T12:55:00.894Z,1.03
2023-03-28T12:58:34.437Z,1.27
2023-03-28T13:01:49.745Z,1.00
2023-03-28T13:05:10.177Z,1.00
2023-03-28T13:08:31.032Z,1.00
2023-03-28T13:11:54.912Z,0.90
2023-03-28T13:14:59.942Z,0.90
2023-03-28T13:18:20.359Z,0.90
2023-03-28T13:21:43.367Z,1.10
2023-03-28T13:24:45.674Z,0.87
2023-03-28T13:27:53.137Z,1.53
2023-03-28T13:31:20.504Z,1.00
2023-03-28T13:34:25.197Z,5.60
2023-03-28T13:37:46.189Z,0.97
2023-03-28T13:40:55.929Z,1.50
2023-03-28T13:44:00.818Z,5.00
2023-03-28T13:47:03.526Z,1.00
2023-03-28T13:50:26.511Z,1.40
2023-03-28T13:53:46.337Z,1.90
2023-03-28T13:56:51.265Z,1.53
2023-03-28T14:00:55.769Z,1.27
2023-03-28T14:03:58.130Z,1.00
2023-03-28T14:07:02.260Z,1.00
2023-03-28T14:10:22.894Z,0.73
2023-03-28T14:13:30.124Z,2.20
2023-03-28T14:16:35.164Z,1.30
2023-03-28T14:19:46.915Z,1.10
2023-03-28T14:22:59.966Z,0.90
2023-03-28T14:26:07.275Z,0.93
2023-03-28T14:29:14.972Z,0.90
2023-03-28T14:32:25.810Z,1.00
2023-03-28T14:35:33.673Z,1.30
2023-03-28T14:38:38.473Z,1.20
2023-03-28T14:41:43.710Z,1.27
2023-03-28T14:44:52.281Z,1.20
2023-03-28T14:47:56.756Z,1.50
2023-03-28T14:51:01.166Z,0.70
2023-03-28T14:54:05.058Z,0.90
2023-03-28T14:57:07.931Z,1.13
2023-03-28T15:00:16.524Z,1.20
2023-03-28T15:03:33.578Z,1.17
2023-03-28T15:06:39.321Z,1.37
2023-03-28T15:09:41.479Z,1.27
2023-03-28T15:13:08.886Z,2.23
2023-03-28T15:16:17.601Z,1.50
2023-03-28T15:19:28.433Z,1.30
2023-03-28T15:22:33.460Z,1.33
2023-03-28T15:25:37.043Z,1.33
2023-03-28T15:28:40.396Z,1.23
2023-03-28T15:31:42.815Z,1.00
2023-03-28T15:35:00.973Z,1.57
2023-03-28T15:38:08.126Z,1.23
2023-03-28T15:41:19.040Z,5.50
2023-03-28T15:44:30.326Z,1.63
2023-03-28T15:47:35.606Z,0.87
2023-03-28T15:50:41.254Z,1.30
2023-03-28T15:53:46.633Z,3.40
2023-03-28T15:56:49.102Z,1.67
2023-03-28T15:59:51.597Z,1.37
2023-03-28T16:03:13.936Z,1.20
2023-03-28T16:06:31.806Z,1.30
2023-03-28T16:09:34.929Z,1.23
2023-03-28T16:12:37.311Z,1.30
2023-03-28T16:15:39.595Z,1.20
2023-03-28T16:18:41.606Z,1.30
2023-03-28T16:21:44.027Z,1.10
2023-03-28T16:24:46.328Z,1.50
2023-03-28T16:27:48.661Z,1.27
2023-03-28T16:30:50.964Z,1.07
2023-03-28T16:33:53.356Z,1.30
2023-03-28T16:36:57.658Z,1.60
2023-03-28T16:40:02.091Z,1.23
2023-03-28T16:43:05.730Z,1.50
2023-03-28T16:46:09.833Z,1.67
2023-03-28T16:49:13.941Z,1.97
2023-03-28T16:52:16.251Z,1.80
2023-03-28T16:55:19.313Z,4.90
2023-03-28T16:58:21.676Z,1.67
2023-03-28T17:01:23.727Z,8.80
2023-03-28T17:04:28.625Z,1.67
2023-03-28T17:07:32.005Z,1.67
2023-03-28T17:10:34.940Z,2.10
2023-03-28T17:13:42.135Z,2.40
2023-03-28T17:16:45.928Z,1.93
2023-03-28T17:23:07.567Z,2.30
2023-03-28T17:26:10.694Z,2.83
2023-03-28T17:29:15.694Z,2.87
2023-03-28T17:32:17.904Z,2.60
2023-03-28T17:35:21.535Z,2.60
2023-03-28T17:38:23.609Z,3.47
2023-03-28T17:41:27.764Z,3.00
2023-03-28T17:44:29.871Z,3.67
2023-03-28T17:47:32.239Z,3.10
2023-03-28T17:50:34.278Z,2.80
2023-03-28T17:53:38.794Z,3.23
2023-03-28T17:56:41.323Z,24.50
2023-03-28T17:59:44.207Z,5.10
2023-03-28T18:02:46.631Z,4.03
2023-03-28T18:06:00.153Z,3.70
2023-03-28T18:09:02.805Z,4.33
2023-03-28T18:12:05.207Z,4.47
2023-03-28T18:20:01.848Z,4.33
2023-03-28T18:23:04.188Z,5.30
2023-03-28T18:26:07.345Z,5.20
2023-03-28T18:29:11.517Z,5.17
2023-03-28T18:32:14.743Z,6.67
2023-03-28T18:35:17.272Z,6.40
2023-03-28T18:38:19.604Z,6.13
2023-03-28T18:41:22.388Z,6.10
2023-03-28T18:44:24.375Z,5.53
2023-03-28T18:47:26.691Z,5.90
2023-03-28T18:50:29.732Z,5.90
2023-03-28T18:53:32.702Z,7.63
2023-03-28T18:56:34.845Z,9.13
2023-03-28T18:59:37.951Z,10.07
2023-03-28T19:02:40.143Z,10.10
2023-03-28T19:05:42.935Z,11.20
2023-03-28T19:08:45.047Z,11.97
2023-03-28T19:11:52.558Z,10.90
2023-03-28T19:14:54.908Z,9.63
2023-03-28T19:17:57.610Z,9.87
2023-03-28T19:20:59.999Z,18.67
2023-03-28T19:24:02.295Z,23.30
2023-03-28T19:27:05.328Z,9.50
2023-03-28T19:30:09.087Z,8.97
2023-03-28T19:33:11.383Z,9.93
2023-03-28T19:36:14.175Z,9.30
2023-03-28T19:39:17.634Z,7.90
2023-03-28T19:42:20.410Z,8.23
2023-03-28T19:45:22.420Z,7.53
2023-03-28T19:48:25.998Z,8.23
2023-03-28T19:51:28.713Z,8.53
2023-03-28T19:54:31.251Z,8.43
2023-03-28T19:57:57.016Z,9.07
2023-03-28T20:01:00.035Z,15.77
2023-03-28T20:04:02.492Z,13.67
2023-03-28T20:07:05.155Z,13.13
2023-03-28T20:10:08.104Z,12.30
2023-03-28T20:13:10.620Z,13.60
2023-03-28T20:16:14.006Z,17.80
2023-03-28T20:19:18.113Z,28.27
2023-03-28T20:22:24.365Z,24.20
2023-03-28T20:25:27.110Z,23.53
2023-03-28T20:28:32.090Z,81.33
2023-03-28T20:31:35.373Z,97.97
2023-03-28T20:34:37.492Z,98.37
2023-03-28T20:37:39.774Z,79.60
2023-03-28T20:40:41.917Z,58.27
2023-03-28T20:43:47.219Z,42.60
2023-03-28T20:46:49.577Z,29.90
2023-03-28T20:49:56.564Z,20.13
2023-03-28T20:52:58.772Z,18.70
2023-03-28T20:56:05.395Z,17.43
2023-03-28T20:59:07.912Z,16.97
2023-03-28T21:02:10.853Z,16.43
2023-03-28T21:05:13.397Z,17.23
2023-03-28T21:08:19.578Z,19.43
2023-03-28T21:11:26.424Z,29.83
2023-03-28T21:14:29.245Z,29.13
2023-03-28T21:17:31.521Z,30.43
2023-03-28T21:20:33.804Z,56.13
2023-03-28T21:23:39.678Z,91.43
2023-03-28T21:26:42.368Z,114.27
2023-03-28T21:29:44.810Z,115.20
2023-03-28T21:32:47.727Z,127.93
2023-03-28T21:35:51.182Z,130.53
2023-03-28T21:38:53.858Z,126.30
2023-03-28T21:41:56.114Z,115.07
2023-03-28T21:44:58.504Z,82.13
2023-03-28T21:48:00.676Z,76.67
2023-03-28T21:51:04.644Z,88.57
2023-03-28T21:54:06.871Z,87.00
2023-03-28T21:57:09.365Z,82.60
2023-03-28T22:00:15.056Z,75.83
2023-03-28T22:03:17.574Z,64.17
2023-03-28T22:06:19.651Z,37.97
2023-03-28T22:09:22.010Z,39.43
2023-03-28T22:12:24.082Z,38.47
2023-03-28T22:15:27.101Z,43.27
2023-03-28T22:18:30.691Z,46.90
2023-03-28T22:21:33.471Z,49.07
2023-03-28T22:24:35.582Z,46.90
2023-03-28T22:27:38.825Z,42.27
2023-03-28T22:30:41.937Z,39.17
2023-03-28T22:33:44.257Z,34.20
2023-03-28T22:36:46.483Z,32.87
2023-03-28T22:39:48.968Z,32.60
2023-03-28T22:42:51.116Z,31.67
2023-03-28T22:45:53.426Z,36.93
2023-03-28T22:48:58.016Z,55.87
2023-03-28T22:52:04.820Z,42.47
2023-03-28T22:55:07.278Z,33.03
2023-03-28T22:58:09.643Z,33.53
2023-03-28T23:01:11.662Z,35.50
2023-03-28T23:04:14.002Z,34.10
2023-03-28T23:07:17.243Z,38.37
2023-03-28T23:10:19.959Z,47.93
2023-03-28T23:13:22.577Z,45.13
2023-03-28T23:16:25.023Z,53.93
2023-03-28T23:19:27.032Z,50.57
2023-03-28T23:22:29.316Z,51.13
2023-03-28T23:25:32.906Z,50.13
2023-03-28T23:28:35.332Z,45.87
2023-03-28T23:31:37.349Z,49.63
2023-03-28T23:34:40.358Z,44.60
2023-03-28T23:37:42.475Z,44.27
2023-03-28T23:40:45.454Z,45.47
2023-03-28T23:43:47.487Z,41.77
2023-03-28T23:46:50.512Z,42.17
2023-03-28T23:49:52.500Z,44.07
2023-03-28T23:52:55.276Z,43.03
2023-03-28T23:55:57.324Z,42.53
2023-03-28T23:58:59.590Z,42.97
